Time;durP1;ratioP1;P1;durP2;ratioP2;P2;SDS_P1;SDS_P2;PMS_P1;PMS_P2;Temp;Humidity;BMP_temperature;BMP_pressure;BME280_temperature;BME280_humidity;BME280_pressure;Samples;Min_cycle;Max_cycle;Signal;HPM_P1;HPM_P2
2021/01/20 00:01:21;;;;;;;5.43;4.95;;;;;;;14.13;44.96;100079.47;4999264;28;97588;-72
2021/01/20 00:03:49;;;;;;;5.28;4.88;;;;;;;14.14;44.59;100081.22;4999556;28;97384;-71
2021/01/20 00:06:17;;;;;;;5.18;4.85;;;;;;;14.18;44.82;100082.22;4998918;28;98562;-72
2021/01/20 00:08:44;;;;;;;5.45;4.95;;;;;;;14.18;44.70;100076.94;4997787;28;98204;-72
2021/01/20 00:11:12;;;;;;;6.05;5.10;;;;;;;14.16;44.61;100083.91;4998347;28;97094;-72
2021/01/20 00:13:39;;;;;;;5.43;4.93;;;;;;;14.15;44.50;100080.41;4998934;28;98007;-72
2021/01/20 00:16:07;;;;;;;4.95;4.65;;;;;;;14.14;44.38;100080.38;4997824;28;97097;-71
2021/01/20 00:18:35;;;;;;;5.53;5.10;;;;;;;14.17;44.73;100080.44;4996212;28;98157;-72
2021/01/20 00:21:03;;;;;;;5.55;5.05;;;;;;;14.09;44.76;100074.03;4997163;28;97234;-72
2021/01/20 00:23:30;;;;;;;5.07;4.68;;;;;;;14.10;44.76;100071.44;5014802;27;96966;-72
2021/01/20 00:25:58;;;;;;;5.80;5.32;;;;;;;14.09;44.59;100071.41;4997614;28;98263;-72
2021/01/20 00:28:25;;;;;;;5.65;5.18;;;;;;;14.09;44.37;100072.28;4997188;28;98204;-72
2021/01/20 00:30:54;;;;;;;5.95;5.47;;;;;;;14.08;44.62;100065.25;4997041;28;97742;-72
2021/01/20 00:33:21;;;;;;;5.70;5.30;;;;;;;14.07;44.57;100060.78;4996827;28;97105;-72
2021/01/20 00:35:50;;;;;;;5.45;5.05;;;;;;;14.07;44.60;100063.44;4996665;28;99089;-73
2021/01/20 00:38:18;;;;;;;4.95;4.60;;;;;;;14.02;44.53;100059.78;4995851;28;97749;-71
2021/01/20 00:40:45;;;;;;;5.70;5.30;;;;;;;13.99;44.52;100061.44;4998660;28;97900;-71
2021/01/20 00:43:12;;;;;;;5.75;5.35;;;;;;;13.97;44.84;100061.41;4998955;28;97625;-71
2021/01/20 00:45:40;;;;;;;5.90;5.35;;;;;;;13.97;44.71;100057.84;4994967;28;98069;-71
2021/01/20 00:48:09;;;;;;;5.43;5.05;;;;;;;13.88;44.90;100053.22;4997429;28;97827;-72
2021/01/20 00:50:37;;;;;;;5.90;5.50;;;;;;;13.79;45.11;100039.78;4998094;28;97437;-72
2021/01/20 00:53:06;;;;;;;6.60;6.00;;;;;;;13.82;45.04;100037.19;4999560;28;97885;-72
2021/01/20 00:55:34;;;;;;;6.43;5.97;;;;;;;13.82;45.14;100045.13;5013818;27;98464;-72
2021/01/20 00:58:03;;;;;;;5.57;5.20;;;;;;;13.79;44.64;100039.78;5014552;27;97952;-72
2021/01/20 01:00:31;;;;;;;5.82;5.43;;;;;;;13.80;44.84;100030.97;4998094;28;97299;-72
2021/01/20 01:02:58;;;;;;;6.63;6.13;;;;;;;13.82;44.94;100036.31;4996619;28;97384;-72
2021/01/20 01:05:26;;;;;;;6.40;5.80;;;;;;;13.81;44.79;100035.41;4995859;28;100854;-72
2021/01/20 01:07:57;;;;;;;5.93;5.55;;;;;;;13.75;44.83;100037.88;5013113;27;97169;-72
2021/01/20 01:10:26;;;;;;;5.68;5.38;;;;;;;13.76;44.73;100059.88;4997453;28;97336;-72
2021/01/20 01:13:02;;;;;;;5.95;5.45;;;;;;;13.71;44.95;100045.66;4995882;28;98200;-72
2021/01/20 01:15:33;;;;;;;6.55;6.05;;;;;;;13.74;44.58;100029.94;5012689;27;97536;-72
2021/01/20 01:18:02;;;;;;;6.75;6.25;;;;;;;13.70;44.88;100026.31;4995822;28;96844;-71
2021/01/20 01:20:29;;;;;;;6.35;5.78;;;;;;;13.66;45.06;100026.16;4997936;28;97762;-72
2021/01/20 01:22:59;;;;;;;5.60;5.20;;;;;;;13.66;44.97;100035.00;4996096;28;97830;-72
2021/01/20 01:25:30;;;;;;;6.60;6.05;;;;;;;13.66;44.87;100035.00;5012822;27;98407;-72
2021/01/20 01:27:59;;;;;;;6.05;5.65;;;;;;;13.64;44.70;100028.75;4979997;28;98846;-72
2021/01/20 01:30:27;;;;;;;5.95;5.55;;;;;;;13.63;44.75;100026.97;4996918;28;98318;-72
2021/01/20 01:32:55;;;;;;;5.90;5.40;;;;;;;13.63;44.81;100028.72;4996727;28;96940;-71
2021/01/20 01:35:31;;;;;;;5.78;5.28;;;;;;;13.63;44.51;100023.44;5013119;27;97834;-70
2021/01/20 01:38:04;;;;;;;5.53;5.13;;;;;;;13.60;44.60;100033.91;5013873;27;97838;-71
2021/01/20 01:40:59;;;;;;;6.03;5.63;;;;;;;13.64;44.77;100028.75;4996294;28;96963;-72
2021/01/20 01:43:44;;;;;;;5.75;5.25;;;;;;;13.69;44.69;100024.50;4996712;28;97821;-71
2021/01/20 01:46:24;;;;;;;6.22;5.82;;;;;;;13.74;44.36;100035.22;4996418;28;98059;-71
2021/01/20 01:49:08;;;;;;;6.47;5.97;;;;;;;13.77;44.36;100032.66;4995100;28;97818;-71
2021/01/20 01:51:36;;;;;;;5.90;5.50;;;;;;;13.74;44.21;100029.94;4996349;28;97691;-72
2021/01/20 01:54:22;;;;;;;6.22;5.72;;;;;;;13.74;44.63;100030.81;4997969;28;97270;-71
2021/01/20 01:56:51;;;;;;;5.82;5.40;;;;;;;13.76;44.46;100031.75;5013201;27;98138;-71
2021/01/20 01:59:22;;;;;;;6.55;6.10;;;;;;;13.75;44.29;100029.06;4994401;28;97922;-71
2021/01/20 02:01:50;;;;;;;6.70;6.10;;;;;;;13.75;44.41;100029.97;4995549;28;96861;-72
2021/01/20 02:04:26;;;;;;;7.03;6.43;;;;;;;13.75;44.25;100031.69;4997403;28;97019;-71
2021/01/20 02:07:00;;;;;;;7.25;6.68;;;;;;;13.75;44.37;100032.59;4996256;28;98245;-74
2021/01/20 02:09:35;;;;;;;6.47;5.97;;;;;;;13.73;44.41;100026.38;5012394;27;99765;-73
2021/01/20 02:12:38;;;;;;;6.68;6.20;;;;;;;13.70;43.97;100034.22;5012596;27;98017;-73
2021/01/20 02:15:11;;;;;;;6.60;6.05;;;;;;;13.69;44.19;100034.16;4995951;28;97455;-72
2021/01/20 02:17:44;;;;;;;7.05;6.43;;;;;;;13.72;44.25;100029.84;4993502;28;98082;-71
2021/01/20 02:20:42;;;;;;;7.20;6.70;;;;;;;13.74;44.38;100025.53;5011136;27;97443;-72
2021/01/20 02:23:14;;;;;;;6.75;6.15;;;;;;;13.77;44.07;100025.63;5014202;27;97293;-72
2021/01/20 02:26:12;;;;;;;8.07;7.15;;;;;;;13.80;44.22;100025.72;4996406;28;97487;-72
2021/01/20 02:29:12;;;;;;;7.38;6.72;;;;;;;13.77;43.99;100024.72;4996199;28;98681;-72
2021/01/20 02:31:48;;;;;;;7.70;6.95;;;;;;;13.79;44.18;100025.66;4995511;28;98983;-72
2021/01/20 02:34:35;;;;;;;7.35;6.75;;;;;;;13.79;44.46;100025.66;5013430;27;97435;-73
2021/01/20 02:37:03;;;;;;;7.30;6.70;;;;;;;13.74;44.09;100025.53;5012820;27;97590;-73
2021/01/20 02:39:51;;;;;;;7.60;6.90;;;;;;;13.72;43.97;100021.94;4995480;28;97852;-73
2021/01/20 02:42:30;;;;;;;7.05;6.45;;;;;;;13.71;44.08;100014.88;4995571;28;99663;-72
2021/01/20 02:45:06;;;;;;;7.45;6.78;;;;;;;13.73;44.16;100018.47;4994648;28;97452;-72
2021/01/20 02:47:39;;;;;;;6.97;6.45;;;;;;;13.74;44.32;100016.72;4995492;28;97475;-73
2021/01/20 02:50:12;;;;;;;7.57;6.90;;;;;;;13.73;44.01;100015.81;5011717;22;98274;-73
2021/01/20 02:52:47;;;;;;;7.50;6.80;;;;;;;13.74;44.31;100014.97;5002243;27;97940;-72
2021/01/20 02:55:34;;;;;;;7.28;6.68;;;;;;;13.71;43.92;100016.63;5001244;28;97096;-72
2021/01/20 02:58:23;;;;;;;6.90;6.22;;;;;;;13.71;44.10;100008.72;5002010;28;97288;-72
2021/01/20 03:01:24;;;;;;;6.85;6.22;;;;;;;13.65;43.93;99998.00;5003233;27;97604;-72
2021/01/20 03:03:53;;;;;;;7.75;7.03;;;;;;;13.63;44.16;99986.50;5005514;27;98574;-72
2021/01/20 03:06:21;;;;;;;6.60;6.10;;;;;;;13.61;44.09;99986.44;5008481;27;97436;-73
2021/01/20 03:08:50;;;;;;;7.32;6.55;;;;;;;13.62;43.72;99977.69;4999978;28;98269;-72
2021/01/20 03:11:17;;;;;;;6.97;6.32;;;;;;;13.61;44.03;99989.06;5003446;28;98773;-71
2021/01/20 03:13:46;;;;;;;7.28;6.68;;;;;;;13.60;44.07;99973.19;5000319;28;97595;-71
2021/01/20 03:16:13;;;;;;;7.65;5.90;;;;;;;13.60;44.39;99966.19;5002247;28;98325;-71
2021/01/20 03:18:41;;;;;;;7.28;6.50;;;;;;;13.60;44.13;99966.19;5006468;28;97537;-71
2021/01/20 03:21:09;;;;;;;7.95;7.25;;;;;;;13.62;44.02;99956.56;5003222;28;99371;-72
2021/01/20 03:23:36;;;;;;;6.60;6.00;;;;;;;13.60;43.94;99954.72;5002939;28;98908;-72
2021/01/20 03:26:04;;;;;;;7.88;7.10;;;;;;;13.59;43.98;99948.59;5000467;28;98956;-71
2021/01/20 03:28:31;;;;;;;6.38;5.93;;;;;;;13.62;43.81;99946.00;5002981;28;97864;-72
2021/01/20 03:30:58;;;;;;;8.48;7.25;;;;;;;13.60;44.14;99947.72;5005616;28;97720;-72
2021/01/20 03:33:26;;;;;;;7.07;6.47;;;;;;;13.60;43.81;99931.88;5007051;28;98430;-71
2021/01/20 03:35:54;;;;;;;7.53;6.93;;;;;;;13.64;43.73;99923.19;5005267;28;97580;-71
2021/01/20 03:38:22;;;;;;;6.68;6.07;;;;;;;13.61;43.97;99916.94;5001746;28;96956;-72
2021/01/20 03:40:49;;;;;;;8.43;7.55;;;;;;;13.60;44.08;99926.59;5006890;28;98769;-72
2021/01/20 03:43:17;;;;;;;6.95;6.45;;;;;;;13.59;43.90;99916.91;5002511;28;99251;-71
2021/01/20 03:45:44;;;;;;;8.75;6.95;;;;;;;13.62;43.83;99922.25;5000798;27;97610;-71
2021/01/20 03:48:12;;;;;;;7.68;6.97;;;;;;;13.58;43.75;99920.38;5004230;28;97008;-71
2021/01/20 03:50:39;;;;;;;7.35;6.65;;;;;;;13.53;43.94;99924.66;5001438;28;98917;-71
2021/01/20 03:53:07;;;;;;;6.93;6.38;;;;;;;13.51;43.91;99931.63;5008960;27;97848;-70
2021/01/20 03:55:54;;;;;;;7.40;6.32;;;;;;;13.47;43.91;99919.19;5007172;28;96902;-71
2021/01/20 03:58:21;;;;;;;6.95;6.25;;;;;;;13.44;44.07;99924.41;5007759;28;97694;-71
2021/01/20 04:00:48;;;;;;;6.72;6.20;;;;;;;13.36;44.03;99923.28;4999134;28;98399;-71
2021/01/20 04:03:16;;;;;;;7.22;6.18;;;;;;;13.37;44.21;99916.28;5002671;28;99097;-72
2021/01/20 04:06:04;;;;;;;6.15;5.72;;;;;;;13.39;43.91;99928.66;5004462;28;97453;-73
2021/01/20 04:08:32;;;;;;;7.13;6.00;;;;;;;13.38;44.04;99924.22;5020157;27;97873;-72
2021/01/20 04:11:01;;;;;;;7.50;6.78;;;;;;;13.36;44.13;99920.63;5006932;28;98042;-71
2021/01/20 04:13:29;;;;;;;7.03;6.43;;;;;;;13.33;43.99;99917.03;5002450;28;97488;-71
2021/01/20 04:15:57;;;;;;;8.40;6.00;;;;;;;13.30;44.11;99920.50;5000237;28;97661;-70
2021/01/20 04:18:24;;;;;;;6.45;5.85;;;;;;;13.29;44.09;99917.78;5001536;28;97629;-71
2021/01/20 04:20:52;;;;;;;7.00;6.30;;;;;;;13.23;44.13;99916.78;5001803;28;98274;-71
2021/01/20 04:23:19;;;;;;;6.72;6.13;;;;;;;13.17;44.40;99918.34;5003419;28;98422;-72
2021/01/20 04:25:47;;;;;;;14.07;8.95;;;;;;;13.13;44.09;99917.38;5004426;27;97146;-71
2021/01/20 04:28:15;;;;;;;19.30;12.02;;;;;;;13.10;44.45;99917.25;5004649;28;97650;-72
2021/01/20 04:30:42;;;;;;;11.80;7.75;;;;;;;13.11;44.13;99916.44;5002560;27;98297;-71
2021/01/20 04:33:10;;;;;;;21.40;14.13;;;;;;;13.10;44.02;99911.13;5000898;27;97559;-71
2021/01/20 04:35:37;;;;;;;8.38;7.47;;;;;;;13.11;44.11;99920.78;5004581;28;97298;-72
2021/01/20 04:38:05;;;;;;;7.30;6.50;;;;;;;13.14;43.99;99912.97;5006911;28;96856;-71
2021/01/20 04:40:33;;;;;;;8.00;6.40;;;;;;;13.15;43.82;99920.03;5013261;28;99263;-71
2021/01/20 04:43:00;;;;;;;6.40;5.80;;;;;;;13.13;44.17;99911.19;5004283;27;98020;-71
2021/01/20 04:45:29;;;;;;;6.47;5.90;;;;;;;13.10;43.95;99913.75;5007389;28;97514;-71
2021/01/20 04:47:57;;;;;;;84.25;33.67;;;;;;;13.05;43.99;99915.34;5003032;28;98014;-71
2021/01/20 04:50:25;;;;;;;21.17;12.48;;;;;;;13.04;44.17;99921.47;4999092;28;98305;-71
2021/01/20 04:52:54;;;;;;;9.02;6.75;;;;;;;13.04;44.00;99913.56;5009891;28;98941;-71
2021/01/20 04:55:22;;;;;;;6.43;5.85;;;;;;;13.01;43.92;99926.63;4997627;27;97223;-71
2021/01/20 04:57:50;;;;;;;10.13;7.13;;;;;;;13.02;44.04;99916.16;5005078;28;97135;-71
2021/01/20 05:00:19;;;;;;;7.60;6.10;;;;;;;12.99;43.91;99916.00;5001726;28;99182;-71
2021/01/20 05:02:48;;;;;;;8.15;6.25;;;;;;;12.97;43.87;99909.78;5006374;27;98548;-71
2021/01/20 05:05:15;;;;;;;5.97;5.47;;;;;;;12.95;43.91;99916.78;5009079;28;97524;-70
2021/01/20 05:07:43;;;;;;;8.10;6.03;;;;;;;12.91;43.80;99914.00;5001882;28;97355;-70
2021/01/20 05:10:12;;;;;;;6.50;5.07;;;;;;;12.88;43.96;99913.94;5004362;28;98162;-71
2021/01/20 05:12:40;;;;;;;5.43;4.93;;;;;;;12.86;43.90;99905.09;5002739;28;96764;-71
2021/01/20 05:15:09;;;;;;;7.38;5.43;;;;;;;12.84;43.90;99905.03;5006592;28;98234;-70
2021/01/20 05:17:38;;;;;;;6.38;5.63;;;;;;;12.88;43.79;99913.94;5001787;28;97498;-71
2021/01/20 05:20:25;;;;;;;5.18;4.88;;;;;;;12.88;43.74;99898.97;5020716;27;97692;-71
2021/01/20 05:22:55;;;;;;;5.90;5.47;;;;;;;12.89;43.81;99897.25;5006943;28;98188;-71
2021/01/20 05:25:27;;;;;;;5.50;4.97;;;;;;;12.90;43.53;99902.56;5008163;28;97973;-71
2021/01/20 05:27:55;;;;;;;5.60;5.10;;;;;;;12.89;43.58;99902.53;5004247;28;97702;-71
2021/01/20 05:30:23;;;;;;;8.77;5.10;;;;;;;12.90;43.61;99896.41;5011509;28;98272;-70
2021/01/20 05:32:55;;;;;;;6.95;5.07;;;;;;;12.92;43.41;99890.31;5008498;28;97231;-70
2021/01/20 05:35:24;;;;;;;5.63;5.10;;;;;;;12.90;43.65;99885.88;5009147;28;97346;-69
2021/01/20 05:37:52;;;;;;;36.25;21.77;;;;;;;12.94;43.53;99882.47;5007171;28;97378;-71
2021/01/20 05:40:20;;;;;;;15.07;10.63;;;;;;;12.93;43.50;99888.59;5007054;28;97387;-71
2021/01/20 05:42:51;;;;;;;6.50;5.78;;;;;;;12.96;43.41;99896.56;5002167;28;100426;-71
2021/01/20 05:45:20;;;;;;;5.10;4.75;;;;;;;12.95;43.51;99892.16;5004542;27;97540;-73
2021/01/20 05:48:02;;;;;;;5.50;5.03;;;;;;;12.98;43.20;99898.44;5005776;28;96869;-73
2021/01/20 05:50:31;;;;;;;6.35;5.20;;;;;;;13.02;43.28;99894.13;5002920;28;98913;-74
2021/01/20 05:53:09;;;;;;;5.30;4.93;;;;;;;13.02;43.32;99899.41;5011658;28;99396;-73
2021/01/20 05:55:37;;;;;;;5.13;4.75;;;;;;;13.03;43.10;99891.56;5000510;28;97244;-73
2021/01/20 05:58:05;;;;;;;5.50;5.10;;;;;;;13.07;43.20;99895.19;5007502;28;97716;-73
2021/01/20 06:00:33;;;;;;;5.20;4.80;;;;;;;13.03;42.92;99888.03;5005429;28;97894;-73
2021/01/20 06:03:00;;;;;;;4.70;4.40;;;;;;;13.05;43.08;99889.88;5005919;27;97962;-74
2021/01/20 06:05:28;;;;;;;4.80;4.40;;;;;;;13.08;43.09;99873.25;5005683;28;97383;-74
2021/01/20 06:07:57;;;;;;;5.25;4.75;;;;;;;13.10;42.96;99880.34;5006232;28;97607;-75
2021/01/20 06:10:25;;;;;;;4.97;4.47;;;;;;;13.12;42.80;99875.09;5002449;27;98104;-74
2021/01/20 06:12:53;;;;;;;4.90;4.50;;;;;;;13.12;42.83;99877.75;4998734;28;97639;-74
2021/01/20 06:15:24;;;;;;;5.57;5.07;;;;;;;13.17;42.83;99876.16;4997516;27;97435;-74
2021/01/20 06:17:54;;;;;;;4.80;4.50;;;;;;;13.20;42.41;99878.88;5000907;28;97812;-74
2021/01/20 06:20:23;;;;;;;4.82;4.43;;;;;;;13.23;42.71;99881.56;5001736;28;99362;-74
2021/01/20 06:22:53;;;;;;;4.07;3.78;;;;;;;13.27;42.27;99883.47;5003222;28;97875;-74
2021/01/20 06:25:26;;;;;;;5.00;4.55;;;;;;;13.27;42.26;99878.19;4998886;28;97165;-73
2021/01/20 06:27:55;;;;;;;4.85;4.53;;;;;;;13.29;42.51;99875.59;5001841;28;97271;-74
2021/01/20 06:30:25;;;;;;;5.00;4.47;;;;;;;13.29;42.31;99863.31;5023635;27;97849;-75
2021/01/20 06:32:53;;;;;;;5.25;4.40;;;;;;;13.30;41.97;99862.47;5005671;28;97641;-73
2021/01/20 06:35:21;;;;;;;4.90;4.53;;;;;;;13.31;42.15;99873.88;5008208;28;98297;-75
2021/01/20 06:37:49;;;;;;;4.65;4.35;;;;;;;13.28;42.16;99871.16;5006366;28;96960;-75
2021/01/20 06:40:48;;;;;;;6.40;4.60;;;;;;;13.31;41.50;99863.34;5004879;28;97493;-74
2021/01/20 06:43:35;;;;;;;4.95;4.63;;;;;;;13.29;40.78;99875.59;5013340;28;97895;-74
2021/01/20 06:46:21;;;;;;;5.15;4.75;;;;;;;13.18;39.21;99865.66;5005354;28;97178;-74
2021/01/20 06:49:11;;;;;;;4.65;4.30;;;;;;;13.25;40.72;99879.88;5002663;28;97118;-74
2021/01/20 06:51:39;;;;;;;5.38;4.93;;;;;;;13.22;41.92;99869.25;5002506;28;97955;-73
2021/01/20 06:54:09;;;;;;;4.90;4.50;;;;;;;13.28;41.90;99873.81;5005082;28;99336;-75
2021/01/20 06:56:39;;;;;;;5.15;4.53;;;;;;;13.29;42.00;99875.59;5020576;27;97150;-73
2021/01/20 06:59:27;;;;;;;5.30;4.88;;;;;;;13.36;41.50;99867.88;5001453;28;98503;-75
2021/01/20 07:02:09;;;;;;;5.22;4.80;;;;;;;13.42;41.25;99867.16;5003609;27;100096;-74
2021/01/20 07:04:55;;;;;;;5.10;4.70;;;;;;;13.45;41.48;99869.91;5020555;27;98035;-74
2021/01/20 07:07:52;;;;;;;5.22;4.72;;;;;;;13.47;41.47;99866.44;5002847;27;97289;-73
2021/01/20 07:10:21;;;;;;;5.32;4.68;;;;;;;13.52;41.87;99870.06;5002564;27;99335;-74
2021/01/20 07:13:18;;;;;;;6.85;4.75;;;;;;;13.51;41.11;99870.94;5002721;27;97924;-74
2021/01/20 07:15:53;;;;;;;7.50;5.00;;;;;;;13.55;41.67;99869.28;5004740;27;98876;-75
2021/01/20 07:18:22;;;;;;;5.28;4.78;;;;;;;13.58;41.76;99872.00;5001698;27;96999;-73
2021/01/20 07:20:51;;;;;;;7.53;5.25;;;;;;;13.58;41.41;99880.81;5001012;27;98193;-74
2021/01/20 07:23:18;;;;;;;5.10;4.80;;;;;;;13.56;41.83;99887.78;5018030;27;98426;-75
2021/01/20 07:25:53;;;;;;;5.30;4.80;;;;;;;13.59;41.31;99887.88;5001583;27;97482;-75
2021/01/20 07:28:23;;;;;;;7.63;5.07;;;;;;;13.62;41.56;99884.41;5002850;27;97841;-75
2021/01/20 07:31:04;;;;;;;5.22;4.43;;;;;;;13.63;41.06;99878.31;4999429;27;97157;-75
2021/01/20 07:33:37;;;;;;;6.05;5.28;;;;;;;13.66;41.52;99879.28;4998842;27;97946;-76
2021/01/20 07:36:11;;;;;;;4.53;4.20;;;;;;;13.68;41.25;99881.94;5003199;27;99003;-75
2021/01/20 07:38:38;;;;;;;5.22;4.82;;;;;;;13.72;41.48;99879.41;5016687;27;97608;-73
2021/01/20 07:41:14;;;;;;;5.47;4.38;;;;;;;13.67;40.30;99888.97;5030242;27;97498;-73
2021/01/20 07:43:43;;;;;;;5.05;4.65;;;;;;;13.70;41.28;99875.88;5003398;27;97682;-74
2021/01/20 07:46:19;;;;;;;4.90;4.57;;;;;;;13.64;41.02;99885.34;5022680;27;98589;-75
2021/01/20 07:48:49;;;;;;;5.03;4.63;;;;;;;13.59;41.19;99885.25;5009329;27;97910;-74
2021/01/20 07:51:20;;;;;;;4.88;4.53;;;;;;;13.57;40.68;99883.41;5013070;27;96878;-74
2021/01/20 07:53:58;;;;;;;4.78;4.40;;;;;;;13.59;41.12;99882.59;5011787;27;97031;-74
2021/01/20 07:56:26;;;;;;;5.22;4.72;;;;;;;13.60;41.58;99872.94;5016545;27;98088;-74
2021/01/20 07:58:54;;;;;;;5.07;4.68;;;;;;;13.60;41.37;99863.28;5012841;27;97123;-71
2021/01/20 08:01:29;;;;;;;5.10;4.70;;;;;;;13.62;40.97;99877.41;5021176;27;98501;-74
2021/01/20 08:03:58;;;;;;;4.68;4.13;;;;;;;13.60;41.28;99863.28;5013104;27;97339;-75
2021/01/20 08:06:27;;;;;;;5.13;4.50;;;;;;;13.64;41.45;99872.16;5021424;27;96968;-75
2021/01/20 08:08:57;;;;;;;5.13;4.72;;;;;;;13.64;40.86;99872.16;5016720;27;97411;-74
2021/01/20 08:11:29;;;;;;;4.93;4.53;;;;;;;13.65;41.12;99871.31;5033137;27;96913;-73
2021/01/20 08:14:02;;;;;;;4.47;4.18;;;;;;;13.71;41.12;99861.81;5010922;27;98088;-73
2021/01/20 08:16:32;;;;;;;4.60;4.40;;;;;;;13.76;41.27;99862.81;5013795;27;97909;-73
2021/01/20 08:19:03;;;;;;;5.30;4.32;;;;;;;13.78;41.13;99858.47;5002127;28;97292;-74
2021/01/20 08:21:30;;;;;;;5.53;5.03;;;;;;;13.83;41.14;99866.53;5012873;27;98297;-75
2021/01/20 08:24:00;;;;;;;6.35;5.13;;;;;;;13.85;41.12;99857.75;5013082;27;98222;-74
2021/01/20 08:26:31;;;;;;;4.93;4.50;;;;;;;13.92;40.80;99861.47;5013163;27;99310;-74
2021/01/20 08:29:03;;;;;;;5.00;4.60;;;;;;;13.87;40.79;99871.91;5017122;27;98035;-74
2021/01/20 08:31:31;;;;;;;4.90;4.60;;;;;;;13.90;40.89;99868.47;5010905;27;97453;-74
2021/01/20 08:34:16;;;;;;;5.30;4.38;;;;;;;13.89;39.67;99867.56;5013825;27;98751;-74
2021/01/20 08:36:54;;;;;;;4.93;4.50;;;;;;;13.93;40.59;99857.97;5010538;27;97825;-74
2021/01/20 08:39:22;;;;;;;5.13;4.72;;;;;;;13.98;40.87;99859.84;5016510;27;98171;-74
2021/01/20 08:42:12;;;;;;;6.13;4.90;;;;;;;13.98;40.14;99859.84;4998822;27;98340;-72
2021/01/20 08:44:40;;;;;;;6.63;4.50;;;;;;;13.98;40.69;99865.13;5002882;27;98479;-73
2021/01/20 08:47:09;;;;;;;4.57;4.28;;;;;;;14.03;40.99;99854.72;5002706;27;98106;-74
2021/01/20 08:49:37;;;;;;;5.18;4.68;;;;;;;14.03;41.13;99845.00;5014208;27;97691;-73
2021/01/20 08:52:05;;;;;;;5.20;4.70;;;;;;;14.05;41.07;99848.59;5020484;27;97415;-73
2021/01/20 08:54:47;;;;;;;5.20;4.80;;;;;;;14.06;40.45;99838.94;5012528;27;97272;-73
2021/01/20 08:57:16;;;;;;;5.15;4.75;;;;;;;14.09;40.84;99837.25;5016396;27;97834;-74
2021/01/20 08:59:53;;;;;;;5.28;4.65;;;;;;;14.11;40.34;99822.34;5015286;27;97414;-74
2021/01/20 09:02:20;;;;;;;5.70;5.20;;;;;;;14.18;40.68;99831.28;5010300;27;97318;-74
2021/01/20 09:04:48;;;;;;;6.07;4.90;;;;;;;14.14;40.56;99826.81;5012404;27;99289;-74
2021/01/20 09:07:17;;;;;;;5.63;5.10;;;;;;;14.22;40.79;99836.69;5010371;27;100669;-73
2021/01/20 09:09:47;;;;;;;5.30;4.90;;;;;;;14.21;40.86;99823.44;5006661;27;97584;-75
2021/01/20 09:12:15;;;;;;;5.50;5.00;;;;;;;14.21;40.64;99823.44;5001193;27;97514;-75
2021/01/20 09:15:01;;;;;;;5.75;5.05;;;;;;;14.24;40.88;99818.22;4999380;27;98693;-74
2021/01/20 09:17:28;;;;;;;6.95;4.88;;;;;;;14.23;40.76;99822.59;4999894;27;98463;-74
2021/01/20 09:19:56;;;;;;;5.20;4.70;;;;;;;14.20;40.59;99814.63;5016591;27;97610;-74
2021/01/20 09:22:25;;;;;;;4.88;4.47;;;;;;;14.22;40.53;99810.28;5003224;27;97171;-74
2021/01/20 09:24:52;;;;;;;5.00;4.65;;;;;;;14.18;40.36;99803.13;5023472;27;98034;-74
2021/01/20 09:27:20;;;;;;;5.78;5.28;;;;;;;14.22;40.34;99802.34;5015892;27;99156;-74
2021/01/20 09:29:47;;;;;;;5.43;5.03;;;;;;;14.13;40.53;99815.34;5000580;27;97124;-74
2021/01/20 09:32:16;;;;;;;5.25;4.82;;;;;;;14.15;40.24;99813.63;5000621;27;96974;-74
2021/01/20 09:34:43;;;;;;;4.95;4.55;;;;;;;14.17;40.36;99805.75;5001968;27;98041;-73
2021/01/20 09:37:13;;;;;;;5.07;4.65;;;;;;;14.18;39.90;99812.78;5000485;27;99485;-73
2021/01/20 09:39:43;;;;;;;4.75;4.35;;;;;;;14.22;40.42;99809.38;4999848;27;97325;-72
2021/01/20 09:42:10;;;;;;;5.38;4.90;;;;;;;14.25;40.38;99805.03;5006891;27;97240;-72
2021/01/20 09:44:38;;;;;;;4.90;4.55;;;;;;;14.26;39.84;99805.94;5015627;27;99434;-72
2021/01/20 09:47:06;;;;;;;4.75;4.45;;;;;;;14.27;39.84;99813.03;4998502;27;98613;-73
2021/01/20 09:49:34;;;;;;;4.57;4.28;;;;;;;14.29;40.17;99805.16;4997769;27;98053;-72
2021/01/20 09:52:03;;;;;;;5.00;4.60;;;;;;;14.28;39.94;99809.56;5001734;27;96875;-72
2021/01/20 09:54:31;;;;;;;4.45;4.10;;;;;;;14.24;39.88;99803.28;4999040;27;98023;-72
2021/01/20 09:56:58;;;;;;;4.50;4.10;;;;;;;14.27;39.97;99804.25;5002322;27;97324;-72
2021/01/20 09:59:27;;;;;;;4.95;4.45;;;;;;;14.27;39.92;99812.16;4999030;27;97400;-72
2021/01/20 10:01:55;;;;;;;4.68;4.28;;;;;;;14.25;39.24;99799.75;4998384;27;97918;-72
2021/01/20 10:04:22;;;;;;;6.50;4.45;;;;;;;14.23;39.73;99812.03;5005078;27;98395;-72
2021/01/20 10:07:09;;;;;;;4.40;4.05;;;;;;;14.17;39.59;99804.00;5001805;28;99271;-73
2021/01/20 10:09:38;;;;;;;4.90;4.60;;;;;;;14.22;39.93;99805.00;5007177;27;97070;-72
2021/01/20 10:12:06;;;;;;;4.72;4.25;;;;;;;14.24;39.85;99797.09;5005783;27;97529;-71
2021/01/20 10:14:34;;;;;;;5.05;4.60;;;;;;;14.26;39.67;99795.38;5020271;27;99697;-71
2021/01/20 10:17:02;;;;;;;4.68;4.25;;;;;;;14.19;39.66;99791.72;4998279;27;98421;-72
2021/01/20 10:19:29;;;;;;;4.68;4.28;;;;;;;14.22;39.46;99788.25;5000808;27;97352;-72
2021/01/20 10:21:57;;;;;;;4.70;4.40;;;;;;;14.28;39.56;99777.84;5001699;27;98034;-70
2021/01/20 10:24:27;;;;;;;5.00;4.60;;;;;;;14.28;39.23;99771.66;4999245;27;98794;-73
2021/01/20 10:26:56;;;;;;;4.72;4.05;;;;;;;14.34;39.34;99777.09;5014575;27;97780;-73
2021/01/20 10:29:29;;;;;;;4.22;4.03;;;;;;;14.34;39.42;99778.00;5007176;27;97524;-72
2021/01/20 10:32:00;;;;;;;4.45;4.15;;;;;;;14.39;39.60;99780.72;5025477;27;97497;-72
2021/01/20 10:34:30;;;;;;;4.75;4.45;;;;;;;14.48;39.63;99788.84;5008794;27;98083;-72
2021/01/20 10:36:59;;;;;;;5.13;4.72;;;;;;;14.52;39.84;99782.78;5007966;27;96755;-72
2021/01/20 10:39:27;;;;;;;4.20;3.90;;;;;;;14.54;39.25;99796.91;5001762;27;97128;-72
2021/01/20 10:41:55;;;;;;;4.90;4.45;;;;;;;14.55;39.39;99796.03;5011829;27;97133;-72
2021/01/20 10:44:24;;;;;;;4.65;3.83;;;;;;;14.58;39.28;99798.78;5001603;27;98291;-73
2021/01/20 10:46:52;;;;;;;4.43;4.13;;;;;;;14.58;39.55;99797.00;5009875;27;98985;-71
2021/01/20 10:49:19;;;;;;;4.15;3.85;;;;;;;14.61;39.71;99797.09;5007422;27;97887;-72
2021/01/20 10:51:47;;;;;;;4.90;4.40;;;;;;;14.69;39.19;99791.97;5009032;27;97318;-73
2021/01/20 10:54:16;;;;;;;4.25;3.85;;;;;;;14.68;38.95;99795.44;5006819;27;101279;-73
2021/01/20 10:56:45;;;;;;;4.05;3.75;;;;;;;14.67;39.46;99793.69;5005510;27;98145;-73
2021/01/20 10:59:14;;;;;;;5.57;4.20;;;;;;;14.69;39.24;99791.97;5002953;27;97600;-73
2021/01/20 11:01:43;;;;;;;4.20;3.92;;;;;;;14.75;39.12;99789.44;5001240;27;97752;-73
2021/01/20 11:04:16;;;;;;;4.60;4.20;;;;;;;14.81;38.91;99787.81;4998207;27;97984;-73
2021/01/20 11:06:45;;;;;;;4.40;4.00;;;;;;;14.87;39.03;99781.75;5006215;27;98712;-73
2021/01/20 11:09:13;;;;;;;4.45;4.15;;;;;;;14.88;38.76;99791.47;5019633;27;97852;-72
2021/01/20 11:11:40;;;;;;;4.38;4.07;;;;;;;14.87;38.69;99781.75;5000590;27;97362;-72
2021/01/20 11:14:08;;;;;;;4.53;4.20;;;;;;;14.88;39.13;99783.53;5006493;28;97912;-72
2021/01/20 11:16:36;;;;;;;4.47;4.13;;;;;;;14.94;39.26;99788.94;5000356;27;98858;-73
2021/01/20 11:19:04;;;;;;;4.90;4.22;;;;;;;15.00;39.20;99794.34;5023153;27;97400;-73
2021/01/20 11:21:31;;;;;;;4.03;3.72;;;;;;;15.00;38.96;99789.03;5003121;27;97464;-73
2021/01/20 11:23:59;;;;;;;4.15;3.83;;;;;;;15.01;38.82;99780.28;5001799;27;97403;-72
2021/01/20 11:26:27;;;;;;;4.60;4.18;;;;;;;15.03;38.65;99783.84;5003139;27;98219;-72
2021/01/20 11:28:55;;;;;;;4.28;3.80;;;;;;;15.02;39.11;99779.41;5018868;27;98293;-72
2021/01/20 11:31:23;;;;;;;4.40;4.03;;;;;;;15.08;38.86;99783.06;4982135;27;96918;-73
2021/01/20 11:33:51;;;;;;;4.10;3.80;;;;;;;15.10;38.87;99773.41;5006342;27;97624;-71
2021/01/20 11:36:19;;;;;;;4.88;4.47;;;;;;;15.22;38.95;99764.78;5014977;27;99840;-72
2021/01/20 11:38:46;;;;;;;3.95;3.40;;;;;;;15.29;38.78;99761.38;5001088;27;97888;-76
2021/01/20 11:41:14;;;;;;;3.63;3.42;;;;;;;15.26;38.70;99771.94;4998762;27;97020;-73
2021/01/20 11:43:41;;;;;;;3.90;3.60;;;;;;;15.27;38.85;99763.16;5003233;27;98960;-71
2021/01/20 11:46:09;;;;;;;3.88;3.58;;;;;;;15.27;38.54;99757.84;4998064;27;99540;-73
2021/01/20 11:48:37;;;;;;;3.65;3.33;;;;;;;15.29;38.74;99771.09;5002066;28;97323;-73
2021/01/20 11:51:06;;;;;;;4.10;3.80;;;;;;;15.29;38.41;99769.31;5008485;28;97150;-74